Time;durP1;ratioP1;P1;durP2;ratioP2;P2;SDS_P1;SDS_P2;PMS_P1;PMS_P2;Temp;Humidity;BMP_temperature;BMP_pressure;BME280_temperature;BME280_humidity;BME280_pressure;Samples;Min_cycle;Max_cycle;Signal;HPM_P1;HPM_P2
2023/01/08 00:01:06;;;;;;;6.77;5.40;;;9.60;99.90;;;;;;6041314;23;20404;-77
2023/01/08 00:03:35;;;;;;;5.37;4.80;;;9.50;99.90;;;;;;6015142;23;20935;-76
2023/01/08 00:06:08;;;;;;;5.80;5.30;;;9.60;99.90;;;;;;6014902;23;20460;-77
2023/01/08 00:08:36;;;;;;;6.90;5.63;;;9.60;99.90;;;;;;6040574;23;20400;-77
2023/01/08 00:11:05;;;;;;;6.30;5.70;;;9.60;99.90;;;;;;6049826;23;20400;-77
2023/01/08 00:13:34;;;;;;;6.43;5.57;;;9.60;99.90;;;;;;6015175;23;20424;-77
2023/01/08 00:16:06;;;;;;;5.40;4.90;;;9.60;99.90;;;;;;6014998;23;20443;-76
2023/01/08 00:18:35;;;;;;;6.03;5.43;;;9.60;99.90;;;;;;6040114;23;20408;-76
2023/01/08 00:21:05;;;;;;;5.77;5.27;;;9.60;99.90;;;;;;6014929;23;20804;-77
2023/01/08 00:23:34;;;;;;;6.20;5.60;;;9.60;99.90;;;;;;6050628;23;20456;-77
2023/01/08 00:26:02;;;;;;;5.63;5.13;;;9.60;99.90;;;;;;6014888;23;20519;-77
2023/01/08 00:28:31;;;;;;;6.60;5.37;;;9.70;99.90;;;;;;6014924;23;20464;-77
2023/01/08 00:31:00;;;;;;;5.90;4.67;;;9.70;99.90;;;;;;6014879;23;20419;-77
2023/01/08 00:33:31;;;;;;;6.30;5.50;;;9.60;99.90;;;;;;6014882;23;20412;-77
2023/01/08 00:35:59;;;;;;;5.70;5.10;;;9.70;99.90;;;;;;6014790;23;20439;-77
2023/01/08 00:38:29;;;;;;;6.10;5.50;;;9.70;99.90;;;;;;6049611;23;20411;-77
2023/01/08 00:40:58;;;;;;;6.70;5.70;;;9.70;99.90;;;;;;6014852;23;20904;-77
2023/01/08 00:43:26;;;;;;;5.67;5.13;;;9.70;99.90;;;;;;6014720;23;20435;-77
2023/01/08 00:45:54;;;;;;;6.00;5.40;;;9.70;99.90;;;;;;6040169;23;20430;-76
2023/01/08 00:48:23;;;;;;;6.40;5.70;;;9.70;99.90;;;;;;6014570;23;20512;-77
2023/01/08 00:50:52;;;;;;;6.20;5.60;;;9.70;99.90;;;;;;6049830;23;20483;-77
2023/01/08 00:53:22;;;;;;;5.87;5.30;;;9.70;99.90;;;;;;6014851;23;20459;-77
2023/01/08 00:56:00;;;;;;;6.23;5.70;;;9.80;99.90;;;;;;6014883;23;20440;-77
2023/01/08 00:58:29;;;;;;;5.60;4.93;;;9.80;99.90;;;;;;6039869;23;20408;-76
2023/01/08 01:00:57;;;;;;;7.60;5.40;;;9.80;99.90;;;;;;6014658;23;20420;-77
2023/01/08 01:03:26;;;;;;;5.67;5.17;;;9.80;99.90;;;;;;6014632;23;20475;-76
2023/01/08 01:06:01;;;;;;;6.23;5.43;;;9.80;99.90;;;;;;6014500;23;20749;-77
2023/01/08 01:08:29;;;;;;;5.30;4.60;;;9.80;99.90;;;;;;6014826;23;20412;-77
2023/01/08 01:10:58;;;;;;;6.40;5.50;;;9.80;99.90;;;;;;6049308;23;20487;-77
2023/01/08 01:13:27;;;;;;;6.40;5.80;;;9.80;99.90;;;;;;6014641;23;20420;-77
2023/01/08 01:15:59;;;;;;;5.90;5.30;;;9.80;99.90;;;;;;6014419;23;20451;-77
2023/01/08 01:18:28;;;;;;;5.77;5.27;;;9.80;99.90;;;;;;6039983;23;20421;-77
2023/01/08 01:20:56;;;;;;;6.23;5.40;;;9.80;99.90;;;;;;6040056;23;20411;-77
2023/01/08 01:23:24;;;;;;;6.30;5.70;;;9.80;99.90;;;;;;6014677;23;20430;-77
2023/01/08 01:25:53;;;;;;;6.20;5.60;;;9.80;99.90;;;;;;6014481;23;20969;-77
2023/01/08 01:28:22;;;;;;;5.40;4.90;;;9.80;99.90;;;;;;6014569;23;20424;-77
2023/01/08 01:30:55;;;;;;;6.10;5.50;;;9.80;99.90;;;;;;6014575;23;20507;-77
2023/01/08 01:33:23;;;;;;;6.70;6.00;;;9.80;99.90;;;;;;6049413;23;20507;-77
2023/01/08 01:36:00;;;;;;;5.83;5.20;;;9.80;99.90;;;;;;6049509;23;20429;-77
2023/01/08 01:38:28;;;;;;;6.30;5.53;;;9.80;99.90;;;;;;6014675;23;20423;-76
2023/01/08 01:40:56;;;;;;;6.37;5.60;;;9.80;99.90;;;;;;6014534;23;20465;-76
2023/01/08 01:43:38;;;;;;;5.70;5.20;;;9.80;99.90;;;;;;6014622;23;20423;-77
2023/01/08 01:46:17;;;;;;;6.13;5.57;;;9.80;99.90;;;;;;6049554;23;20447;-76
2023/01/08 01:48:47;;;;;;;5.83;5.20;;;9.80;99.90;;;;;;6040789;23;20749;-76
2023/01/08 01:51:15;;;;;;;5.60;5.10;;;9.80;99.90;;;;;;6021700;23;20416;-76
2023/01/08 01:53:45;;;;;;;6.40;5.80;;;9.90;99.90;;;;;;6015113;23;20420;-77
2023/01/08 01:56:14;;;;;;;6.00;5.40;;;9.80;99.90;;;;;;6015267;23;20943;-76
2023/01/08 01:58:47;;;;;;;6.00;5.30;;;9.80;99.90;;;;;;6017491;23;20447;-77
2023/01/08 02:01:16;;;;;;;5.90;5.30;;;9.80;99.90;;;;;;6017941;23;20880;-77
2023/01/08 02:03:44;;;;;;;5.40;4.90;;;9.80;99.90;;;;;;6016809;23;20502;-77
2023/01/08 02:06:22;;;;;;;6.10;5.50;;;9.80;99.90;;;;;;6017461;23;20455;-76
2023/01/08 02:08:57;;;;;;;5.13;4.60;;;9.90;99.90;;;;;;6017231;23;20426;-77
2023/01/08 02:11:34;;;;;;;5.10;4.60;;;9.90;99.90;;;;;;6016142;23;20435;-77
2023/01/08 02:14:10;;;;;;;5.47;4.97;;;9.90;99.90;;;;;;6016358;23;20411;-77
2023/01/08 02:16:44;;;;;;;6.03;5.43;;;9.90;99.90;;;;;;6016029;23;20447;-77
2023/01/08 02:19:21;;;;;;;6.33;5.47;;;9.90;99.90;;;;;;6041850;23;20420;-77
2023/01/08 02:22:01;;;;;;;5.97;5.37;;;9.90;99.90;;;;;;6041528;23;20404;-77
2023/01/08 02:24:42;;;;;;;5.00;4.50;;;10.00;99.90;;;;;;6016218;23;20836;-77
2023/01/08 02:27:14;;;;;;;5.97;5.37;;;9.90;99.90;;;;;;6051380;23;20419;-77
2023/01/08 02:29:42;;;;;;;5.97;4.83;;;9.90;99.90;;;;;;6051104;23;20400;-77
2023/01/08 02:32:11;;;;;;;5.60;5.10;;;10.00;99.90;;;;;;6041356;23;20484;-77
2023/01/08 02:34:39;;;;;;;5.93;4.87;;;10.00;99.90;;;;;;6015903;23;20427;-77
2023/01/08 02:37:09;;;;;;;6.87;5.10;;;10.00;99.90;;;;;;6015811;23;20442;-77
2023/01/08 02:40:03;;;;;;;5.90;5.30;;;10.00;99.90;;;;;;6016006;23;20420;-77
2023/01/08 02:42:40;;;;;;;5.23;4.63;;;10.00;99.90;;;;;;6012718;23;20424;-77
2023/01/08 02:45:21;;;;;;;5.47;4.97;;;10.00;99.90;;;;;;6016182;23;20527;-77
2023/01/08 02:47:53;;;;;;;5.43;4.93;;;10.00;99.90;;;;;;6016366;23;20416;-77
2023/01/08 02:50:25;;;;;;;5.87;4.87;;;10.00;99.90;;;;;;6037552;23;20431;-77
2023/01/08 02:53:01;;;;;;;5.80;5.20;;;10.00;99.90;;;;;;6040296;23;20451;-77
2023/01/08 02:55:33;;;;;;;5.10;4.60;;;10.00;99.90;;;;;;6039717;23;20531;-77
2023/01/08 02:58:04;;;;;;;5.97;5.37;;;10.00;99.90;;;;;;6039956;23;20408;-77
2023/01/08 03:00:33;;;;;;;5.23;4.73;;;10.10;99.90;;;;;;6041849;23;20479;-77
2023/01/08 03:03:09;;;;;;;5.60;5.10;;;10.10;99.90;;;;;;6040026;23;20480;-77
2023/01/08 03:05:41;;;;;;;6.30;5.43;;;10.10;99.90;;;;;;6039736;23;20455;-77
2023/01/08 03:08:10;;;;;;;5.43;4.93;;;10.10;99.90;;;;;;6051463;23;20423;-77
2023/01/08 03:10:41;;;;;;;6.13;5.53;;;10.10;99.90;;;;;;6039276;23;20427;-76
2023/01/08 03:13:17;;;;;;;5.57;4.73;;;10.10;99.90;;;;;;6050576;23;20387;-76
2023/01/08 03:15:50;;;;;;;6.00;5.47;;;10.10;99.90;;;;;;6039778;23;20495;-77
2023/01/08 03:18:25;;;;;;;5.40;4.90;;;10.10;99.90;;;;;;6039704;23;20912;-77
2023/01/08 03:20:53;;;;;;;5.70;5.13;;;10.10;99.90;;;;;;6050884;23;20820;-77
2023/01/08 03:23:24;;;;;;;6.80;6.10;;;10.10;99.90;;;;;;6039395;23;20460;-77
2023/01/08 03:25:52;;;;;;;5.53;5.03;;;10.10;99.90;;;;;;6040534;23;20455;-76
2023/01/08 03:28:29;;;;;;;6.33;5.63;;;10.10;99.90;;;;;;6039811;23;20467;-76
2023/01/08 03:30:59;;;;;;;6.43;5.73;;;10.10;99.90;;;;;;6051495;23;20484;-76
2023/01/08 03:33:30;;;;;;;6.20;5.60;;;10.10;99.90;;;;;;6042022;23;20435;-76
2023/01/08 03:36:04;;;;;;;6.10;5.10;;;10.10;99.90;;;;;;6040165;23;20832;-76
2023/01/08 03:38:36;;;;;;;5.30;4.80;;;10.10;99.90;;;;;;6040188;23;20814;-76
2023/01/08 03:41:08;;;;;;;6.40;5.80;;;10.10;99.90;;;;;;6040567;23;20424;-76
2023/01/08 03:43:38;;;;;;;6.00;5.40;;;10.10;99.90;;;;;;6040602;23;20508;-77
2023/01/08 03:46:11;;;;;;;6.20;5.53;;;10.10;99.90;;;;;;6039911;23;20462;-76
2023/01/08 03:48:42;;;;;;;6.10;5.50;;;10.10;99.90;;;;;;6051142;23;20411;-77
2023/01/08 03:51:11;;;;;;;6.23;5.63;;;10.10;99.90;;;;;;6016383;23;20424;-77
2023/01/08 03:53:39;;;;;;;5.10;4.60;;;10.10;99.90;;;;;;6018003;23;20420;-77
2023/01/08 03:56:08;;;;;;;6.43;5.70;;;10.10;99.90;;;;;;6018375;23;20446;-77
2023/01/08 03:58:38;;;;;;;5.70;5.20;;;10.00;99.90;;;;;;6018228;23;20948;-77
2023/01/08 04:01:06;;;;;;;6.10;5.50;;;10.00;99.90;;;;;;6017274;23;20428;-76
2023/01/08 04:03:34;;;;;;;5.90;5.30;;;10.10;99.90;;;;;;6015615;23;20456;-76
2023/01/08 04:06:03;;;;;;;5.90;5.30;;;10.00;99.90;;;;;;6015551;23;20459;-77
2023/01/08 04:08:32;;;;;;;6.23;5.63;;;10.00;99.90;;;;;;6016804;23;20420;-77
2023/01/08 04:11:00;;;;;;;6.40;5.50;;;10.00;99.90;;;;;;6016207;23;20428;-76
2023/01/08 04:13:28;;;;;;;5.80;5.20;;;9.90;99.90;;;;;;6050504;23;20400;-76
2023/01/08 04:15:58;;;;;;;6.80;5.27;;;9.90;99.90;;;;;;6041596;23;20431;-76
2023/01/08 04:18:26;;;;;;;6.23;5.63;;;9.90;99.90;;;;;;6015363;23;20428;-76
2023/01/08 04:20:54;;;;;;;7.13;5.90;;;9.90;99.90;;;;;;6016557;23;20432;-77
2023/01/08 04:23:22;;;;;;;5.97;5.37;;;9.90;99.90;;;;;;6050721;23;20880;-76
2023/01/08 04:25:50;;;;;;;6.03;5.07;;;9.90;99.90;;;;;;6052029;23;20446;-77
2023/01/08 04:28:19;;;;;;;5.87;5.23;;;9.80;99.90;;;;;;6017390;23;20804;-77
2023/01/08 04:30:47;;;;;;;6.10;5.50;;;9.80;99.90;;;;;;6015618;23;20420;-77
2023/01/08 04:33:17;;;;;;;5.60;5.07;;;9.80;99.90;;;;;;6050659;23;20399;-77
2023/01/08 04:35:45;;;;;;;5.57;4.97;;;9.80;99.90;;;;;;6015569;23;20443;-77
2023/01/08 04:38:13;;;;;;;5.97;4.90;;;9.80;99.90;;;;;;6050249;23;20783;-77
2023/01/08 04:40:41;;;;;;;5.93;5.30;;;9.80;99.90;;;;;;6050482;23;20411;-77
2023/01/08 04:43:10;;;;;;;6.57;5.97;;;9.80;99.90;;;;;;6015721;23;20420;-77
2023/01/08 04:45:38;;;;;;;6.57;5.40;;;9.70;99.90;;;;;;6015568;23;20452;-77
2023/01/08 04:48:06;;;;;;;6.03;5.43;;;9.80;99.90;;;;;;6015468;23;20453;-76
2023/01/08 04:50:36;;;;;;;6.60;5.53;;;9.80;99.90;;;;;;5987681;23;20423;-77
2023/01/08 04:53:04;;;;;;;6.60;5.50;;;9.70;99.90;;;;;;5986866;23;20516;-77
2023/01/08 04:55:33;;;;;;;5.50;4.87;;;9.70;99.90;;;;;;6021751;23;20424;-77
2023/01/08 04:58:02;;;;;;;6.07;4.70;;;9.70;99.90;;;;;;5987220;23;20428;-77
2023/01/08 05:00:30;;;;;;;7.10;4.83;;;9.70;99.90;;;;;;5987023;23;20421;-77
2023/01/08 05:02:58;;;;;;;6.90;5.10;;;9.70;99.90;;;;;;6011676;23;20904;-77
2023/01/08 05:05:27;;;;;;;5.50;4.90;;;9.60;99.90;;;;;;6021467;23;20526;-77
2023/01/08 05:07:56;;;;;;;6.33;5.47;;;9.70;99.90;;;;;;5986843;23;20421;-77
2023/01/08 05:10:25;;;;;;;5.20;4.70;;;9.70;99.90;;;;;;5986943;23;20949;-77
2023/01/08 05:12:57;;;;;;;5.47;4.90;;;9.70;99.90;;;;;;5987135;23;20421;-77
2023/01/08 05:15:25;;;;;;;5.60;5.00;;;9.70;99.90;;;;;;5986767;23;20448;-77
2023/01/08 05:17:58;;;;;;;6.00;4.83;;;9.70;99.90;;;;;;5986682;23;20972;-77
2023/01/08 05:20:27;;;;;;;5.93;5.20;;;9.70;99.90;;;;;;6021732;23;20421;-76
2023/01/08 05:22:57;;;;;;;5.77;4.20;;;9.70;99.90;;;;;;5986827;23;20417;-77
2023/01/08 05:25:25;;;;;;;5.70;5.03;;;9.70;99.90;;;;;;6021508;23;20429;-76
2023/01/08 05:27:54;;;;;;;6.17;5.17;;;9.70;99.90;;;;;;5986958;23;20441;-76
2023/01/08 05:30:22;;;;;;;6.00;4.57;;;9.60;99.90;;;;;;5987031;23;20428;-75
2023/01/08 05:32:50;;;;;;;5.80;5.30;;;9.70;99.90;;;;;;6021908;23;20412;-76
2023/01/08 05:35:18;;;;;;;5.70;5.00;;;9.60;99.90;;;;;;6023836;23;20691;-76
2023/01/08 05:37:46;;;;;;;5.37;4.87;;;9.70;99.90;;;;;;5989559;23;20425;-76
2023/01/08 05:40:16;;;;;;;4.93;4.27;;;9.70;99.90;;;;;;6024638;23;20401;-77
2023/01/08 05:42:44;;;;;;;7.23;5.00;;;9.70;99.90;;;;;;6015023;23;20417;-77
2023/01/08 05:45:14;;;;;;;5.60;5.00;;;9.70;99.90;;;;;;5988404;23;20421;-77
2023/01/08 05:47:42;;;;;;;5.83;5.20;;;9.70;99.90;;;;;;5988338;23;20531;-77
2023/01/08 05:50:10;;;;;;;6.10;5.13;;;9.60;99.90;;;;;;6031617;23;20527;-77
2023/01/08 05:52:39;;;;;;;5.33;4.80;;;9.70;99.90;;;;;;6053308;23;20404;-77
2023/01/08 05:55:07;;;;;;;6.50;4.73;;;9.70;99.90;;;;;;6043554;23;20412;-77
2023/01/08 05:57:37;;;;;;;5.13;4.63;;;9.70;99.90;;;;;;6052853;23;20411;-77
2023/01/08 06:00:06;;;;;;;5.73;5.00;;;9.70;99.90;;;;;;6041862;23;20420;-77
2023/01/08 06:02:38;;;;;;;6.60;5.50;;;9.70;99.90;;;;;;6044604;23;20397;-77
2023/01/08 06:05:07;;;;;;;5.63;5.00;;;9.70;99.90;;;;;;6041401;23;20427;-77
2023/01/08 06:07:35;;;;;;;5.10;4.60;;;9.70;99.90;;;;;;6042913;23;20436;-77
2023/01/08 06:10:04;;;;;;;5.70;4.70;;;9.70;99.90;;;;;;6041319;23;20420;-77
2023/01/08 06:12:32;;;;;;;7.13;5.20;;;9.70;99.90;;;;;;6041938;23;20427;-77
2023/01/08 06:15:01;;;;;;;5.10;4.57;;;9.70;99.90;;;;;;6053337;23;20404;-77
2023/01/08 06:17:29;;;;;;;7.47;4.77;;;9.70;99.90;;;;;;6041837;23;20424;-77
2023/01/08 06:19:57;;;;;;;7.43;4.90;;;9.70;99.90;;;;;;6041440;23;20726;-77
2023/01/08 06:22:26;;;;;;;6.17;4.40;;;9.70;99.90;;;;;;6041443;23;20428;-77
2023/01/08 06:24:54;;;;;;;5.93;4.90;;;9.80;99.90;;;;;;6041271;23;20422;-77
2023/01/08 06:27:22;;;;;;;4.90;4.40;;;9.80;99.90;;;;;;6041372;23;20476;-77
2023/01/08 06:29:50;;;;;;;6.70;4.40;;;9.80;99.90;;;;;;6041837;23;20800;-77
2023/01/08 06:32:20;;;;;;;5.97;4.80;;;9.80;99.90;;;;;;6040583;23;20435;-77
2023/01/08 06:34:48;;;;;;;6.13;4.73;;;9.80;99.90;;;;;;6040338;23;20459;-77
2023/01/08 06:37:16;;;;;;;5.83;4.50;;;9.80;99.90;;;;;;6040284;23;20523;-77
2023/01/08 06:39:45;;;;;;;5.13;4.60;;;9.80;99.90;;;;;;6040020;23;20479;-77
2023/01/08 06:42:13;;;;;;;4.87;4.33;;;9.80;99.90;;;;;;6040044;23;20428;-77
2023/01/08 06:44:41;;;;;;;5.83;4.30;;;9.80;99.90;;;;;;6039941;23;20515;-77
2023/01/08 06:47:09;;;;;;;5.03;3.80;;;9.80;99.90;;;;;;6039961;23;20491;-77
2023/01/08 06:49:38;;;;;;;4.40;3.77;;;9.80;99.90;;;;;;6039711;23;20434;-77
2023/01/08 06:52:07;;;;;;;4.80;4.30;;;9.80;99.90;;;;;;6039997;23;20420;-77
2023/01/08 06:54:35;;;;;;;6.87;3.77;;;9.70;99.90;;;;;;6051336;23;20412;-77
2023/01/08 06:57:03;;;;;;;4.63;3.67;;;9.80;99.90;;;;;;6041608;23;20468;-77
2023/01/08 06:59:31;;;;;;;4.93;3.80;;;9.70;99.90;;;;;;6040675;23;20495;-77
2023/01/08 07:01:59;;;;;;;6.70;3.90;;;9.80;99.90;;;;;;6040405;23;20428;-77
2023/01/08 07:04:28;;;;;;;6.20;3.80;;;9.70;99.90;;;;;;6052960;23;20434;-77
2023/01/08 07:06:57;;;;;;;6.07;4.13;;;9.70;99.90;;;;;;6039151;23;20503;-77
2023/01/08 07:09:25;;;;;;;4.33;3.40;;;9.80;99.90;;;;;;6051348;23;20400;-77
2023/01/08 07:11:54;;;;;;;4.00;3.57;;;9.70;99.90;;;;;;6039315;23;20416;-77
2023/01/08 07:14:22;;;;;;;5.70;4.10;;;10.00;99.90;;;;;;6050536;23;20738;-77
2023/01/08 07:16:50;;;;;;;8.53;4.50;;;9.70;99.90;;;;;;6050193;23;20424;-77
2023/01/08 07:19:18;;;;;;;5.17;3.80;;;9.80;99.90;;;;;;6039402;23;20412;-77
2023/01/08 07:21:46;;;;;;;5.77;4.50;;;9.70;99.90;;;;;;6039204;23;20900;-77
2023/01/08 07:24:16;;;;;;;4.63;4.00;;;9.70;99.90;;;;;;6039421;23;20420;-77
2023/01/08 07:26:44;;;;;;;7.70;4.23;;;9.80;99.90;;;;;;6038950;23;20440;-77
2023/01/08 07:29:12;;;;;;;6.20;4.07;;;9.70;99.90;;;;;;6050227;23;20392;-76
2023/01/08 07:31:40;;;;;;;5.20;4.13;;;9.70;99.90;;;;;;6040468;23;20876;-77
2023/01/08 07:34:08;;;;;;;5.23;4.47;;;9.70;99.90;;;;;;6040814;23;20404;-76
2023/01/08 07:36:37;;;;;;;6.50;4.13;;;9.70;99.90;;;;;;6038943;23;20440;-76
2023/01/08 07:39:05;;;;;;;6.77;4.20;;;9.70;99.90;;;;;;6039051;23;20435;-77
2023/01/08 07:41:34;;;;;;;5.70;4.30;;;9.70;99.90;;;;;;6039021;23;20442;-77
2023/01/08 07:44:03;;;;;;;9.23;5.03;;;9.60;99.90;;;;;;6050643;23;20406;-77
2023/01/08 07:46:31;;;;;;;6.93;5.50;;;9.60;99.90;;;;;;6040114;23;20534;-77
2023/01/08 07:48:59;;;;;;;4.80;4.10;;;9.60;99.90;;;;;;6045391;23;20450;-76
2023/01/08 07:51:28;;;;;;;5.90;3.97;;;9.70;99.90;;;;;;6015354;23;20479;-77
2023/01/08 07:53:56;;;;;;;5.27;4.53;;;9.70;99.90;;;;;;6049947;23;20405;-77
2023/01/08 07:56:25;;;;;;;6.67;4.47;;;9.70;99.90;;;;;;6049569;23;20424;-77
2023/01/08 07:58:54;;;;;;;5.83;4.37;;;9.60;99.90;;;;;;6040358;23;20967;-77
2023/01/08 08:01:24;;;;;;;5.63;4.70;;;9.60;99.90;;;;;;6040365;23;20410;-77
2023/01/08 08:03:53;;;;;;;7.70;4.47;;;9.60;99.90;;;;;;6051064;23;20479;-76
2023/01/08 08:06:21;;;;;;;5.57;4.70;;;9.60;99.90;;;;;;6015697;23;20436;-77
2023/01/08 08:08:49;;;;;;;5.43;4.60;;;9.60;99.90;;;;;;6049665;23;20457;-77
2023/01/08 08:11:17;;;;;;;7.10;4.80;;;9.60;99.90;;;;;;6015065;23;20415;-76
2023/01/08 08:13:46;;;;;;;5.47;4.60;;;9.60;99.90;;;;;;6014976;23;20424;-77
2023/01/08 08:16:15;;;;;;;5.40;4.50;;;9.60;99.90;;;;;;6040361;23;20456;-77
2023/01/08 08:18:44;;;;;;;5.03;4.10;;;9.60;99.90;;;;;;6049664;23;20460;-77
2023/01/08 08:21:12;;;;;;;6.70;4.80;;;9.60;99.90;;;;;;6015108;23;20479;-77
2023/01/08 08:23:40;;;;;;;6.03;5.20;;;9.60;99.90;;;;;;6015089;23;20939;-77
2023/01/08 08:26:08;;;;;;;4.87;4.00;;;9.60;99.90;;;;;;6014900;23;20439;-77
2023/01/08 08:28:36;;;;;;;9.30;4.17;;;9.60;99.90;;;;;;6040349;23;20436;-77
2023/01/08 08:31:05;;;;;;;5.47;4.90;;;9.60;99.90;;;;;;6049581;23;20440;-76
2023/01/08 08:33:35;;;;;;;6.50;5.10;;;9.60;99.90;;;;;;6049840;23;20411;-77
2023/01/08 08:36:03;;;;;;;5.10;4.60;;;9.60;99.90;;;;;;6014639;23;20435;-77
2023/01/08 08:38:31;;;;;;;5.10;4.33;;;9.60;99.90;;;;;;6014860;23;20959;-77
2023/01/08 08:41:00;;;;;;;5.20;4.63;;;9.60;99.90;;;;;;6014726;23;20420;-77
2023/01/08 08:43:28;;;;;;;4.50;4.10;;;9.60;99.90;;;;;;6014973;23;20914;-77
2023/01/08 08:45:56;;;;;;;5.80;5.10;;;9.60;99.90;;;;;;6050268;23;20464;-77
2023/01/08 08:48:25;;;;;;;5.60;4.27;;;9.60;99.90;;;;;;6049303;23;20440;-76
2023/01/08 08:50:54;;;;;;;5.00;4.50;;;9.60;99.90;;;;;;6014820;23;20491;-77
2023/01/08 08:53:22;;;;;;;4.93;4.37;;;9.60;99.90;;;;;;6014677;23;20424;-76
2023/01/08 08:55:54;;;;;;;5.73;4.40;;;9.60;99.90;;;;;;6014608;23;20444;-77
2023/01/08 08:58:22;;;;;;;4.93;4.00;;;9.70;99.90;;;;;;6014943;23;20979;-77
2023/01/08 09:00:50;;;;;;;5.80;4.70;;;9.70;99.90;;;;;;6014729;23;20446;-77
2023/01/08 09:03:18;;;;;;;6.50;5.30;;;9.70;99.90;;;;;;6049490;23;20815;-77
2023/01/08 09:05:47;;;;;;;5.73;4.40;;;9.70;99.90;;;;;;6014535;23;20450;-76
2023/01/08 09:08:17;;;;;;;4.80;4.10;;;9.70;99.90;;;;;;6014083;23;20444;-77
2023/01/08 09:10:45;;;;;;;5.30;4.20;;;9.70;99.90;;;;;;6050009;23;20890;-77
2023/01/08 09:13:13;;;;;;;5.43;4.20;;;9.70;99.90;;;;;;6049570;23;20888;-76
2023/01/08 09:15:41;;;;;;;5.67;4.30;;;9.70;99.90;;;;;;6014454;23;20951;-77
2023/01/08 09:18:09;;;;;;;7.27;3.70;;;9.70;99.90;;;;;;6014583;23;20480;-77
2023/01/08 09:20:38;;;;;;;6.00;4.03;;;9.70;99.90;;;;;;6040010;23;20747;-77
2023/01/08 09:23:06;;;;;;;5.40;3.77;;;9.70;99.90;;;;;;6040115;23;20495;-77
2023/01/08 09:25:36;;;;;;;4.90;3.70;;;9.80;99.90;;;;;;6014472;23;20475;-77
2023/01/08 09:28:06;;;;;;;4.90;3.43;;;9.80;99.90;;;;;;6014535;23;20471;-77
2023/01/08 09:30:35;;;;;;;4.43;3.83;;;9.80;99.90;;;;;;6014486;23;20507;-77
2023/01/08 09:33:04;;;;;;;5.73;4.10;;;9.70;99.90;;;;;;6014869;23;20507;-76
2023/01/08 09:35:33;;;;;;;3.80;3.20;;;9.70;99.90;;;;;;6014475;23;20939;-77
2023/01/08 09:38:02;;;;;;;4.70;3.30;;;9.80;99.90;;;;;;6049107;23;20911;-76
2023/01/08 09:40:37;;;;;;;5.37;4.10;;;9.80;99.90;;;;;;6049740;23;20404;-76
2023/01/08 09:43:05;;;;;;;5.57;4.27;;;9.80;99.90;;;;;;6015889;23;20959;-76
2023/01/08 09:45:37;;;;;;;7.30;4.63;;;9.80;99.90;;;;;;6015404;23;20446;-77
2023/01/08 09:48:10;;;;;;;4.20;3.50;;;9.80;99.90;;;;;;6015826;23;20423;-76
2023/01/08 09:50:39;;;;;;;5.50;4.53;;;9.80;99.90;;;;;;6014841;23;20426;-76
2023/01/08 09:53:12;;;;;;;4.40;3.40;;;9.80;99.90;;;;;;6014545;23;20427;-76
2023/01/08 09:55:43;;;;;;;4.90;2.37;;;9.80;99.90;;;;;;6050013;23;20431;-76
2023/01/08 09:58:22;;;;;;;4.90;3.43;;;9.80;99.90;;;;;;6015522;23;20495;-75
2023/01/08 10:00:51;;;;;;;4.60;2.63;;;9.80;99.90;;;;;;6015314;23;20444;-76
2023/01/08 10:03:19;;;;;;;3.70;2.80;;;9.80;99.90;;;;;;6049544;23;20411;-77
2023/01/08 10:05:47;;;;;;;4.77;3.10;;;9.70;99.90;;;;;;6015533;23;20444;-74
2023/01/08 10:08:16;;;;;;;6.50;3.50;;;9.70;99.90;;;;;;6016093;23;20424;-75
2023/01/08 10:10:45;;;;;;;5.70;3.13;;;9.70;99.90;;;;;;6016113;23;20458;-75
2023/01/08 10:13:15;;;;;;;8.23;5.10;;;9.70;99.90;;;;;;6016432;23;20434;-75
2023/01/08 10:15:43;;;;;;;5.00;2.73;;;9.70;99.90;;;;;;6014818;23;20432;-74
2023/01/08 10:18:14;;;;;;;5.67;3.37;;;9.70;99.90;;;;;;6015371;23;20428;-75
2023/01/08 10:20:42;;;;;;;4.63;3.20;;;9.70;99.90;;;;;;6017309;23;20400;-75
2023/01/08 10:23:12;;;;;;;3.60;2.80;;;9.70;99.90;;;;;;6041784;23;20914;-75
2023/01/08 10:25:51;;;;;;;3.90;2.80;;;9.70;99.90;;;;;;6051190;23;20478;-75
2023/01/08 10:28:23;;;;;;;5.30;3.80;;;9.70;99.90;;;;;;6016346;23;20706;-75
2023/01/08 10:30:53;;;;;;;4.50;3.10;;;9.70;99.90;;;;;;6016130;23;20472;-75
2023/01/08 10:33:25;;;;;;;6.50;3.53;;;9.70;99.90;;;;;;6051153;23;20791;-75
2023/01/08 10:35:58;;;;;;;5.60;3.30;;;9.70;99.90;;;;;;6051216;23;20460;-75
2023/01/08 10:38:31;;;;;;;5.73;3.37;;;9.80;99.90;;;;;;6016259;23;20420;-76
2023/01/08 10:41:05;;;;;;;5.13;3.07;;;9.80;99.90;;;;;;6050940;23;20391;-75
2023/01/08 10:43:43;;;;;;;3.97;3.17;;;9.80;99.90;;;;;;6016329;23;20743;-76
2023/01/08 10:46:19;;;;;;;6.37;3.47;;;9.80;99.90;;;;;;6017000;23;20534;-75
2023/01/08 10:48:51;;;;;;;4.90;4.10;;;9.90;99.90;;;;;;6047507;23;20420;-75
2023/01/08 10:51:23;;;;;;;4.80;3.10;;;9.90;99.90;;;;;;6016141;23;20488;-76
2023/01/08 10:53:52;;;;;;;5.07;3.23;;;9.80;99.90;;;;;;6016279;23;20503;-76
2023/01/08 10:56:24;;;;;;;4.27;2.57;;;9.90;99.90;;;;;;6015907;23;20440;-76
2023/01/08 10:58:53;;;;;;;5.70;2.60;;;10.00;99.90;;;;;;6015836;23;20423;-76
2023/01/08 11:01:24;;;;;;;4.97;2.70;;;10.00;99.90;;;;;;6015786;23;20896;-76
2023/01/08 11:03:55;;;;;;;3.93;2.63;;;10.00;99.90;;;;;;6015966;23;20500;-76
2023/01/08 11:06:26;;;;;;;3.40;2.37;;;10.10;99.90;;;;;;6041231;23;20806;-76
2023/01/08 11:08:56;;;;;;;4.37;2.30;;;10.00;99.90;;;;;;6040670;23;20864;-76
2023/01/08 11:11:33;;;;;;;4.23;2.30;;;10.10;99.90;;;;;;6051124;23;20452;-77
2023/01/08 11:14:04;;;;;;;5.60;3.30;;;10.10;99.90;;;;;;6015649;23;20416;-77
2023/01/08 11:16:35;;;;;;;4.90;1.97;;;10.10;99.90;;;;;;6015584;23;20469;-78
2023/01/08 11:19:04;;;;;;;6.73;2.17;;;10.10;99.90;;;;;;6015814;23;20454;-77
2023/01/08 11:21:35;;;;;;;3.93;1.73;;;10.10;99.90;;;;;;6051701;23;20408;-75
2023/01/08 11:24:12;;;;;;;3.90;1.60;;;10.20;99.90;;;;;;6041597;23;20401;-77
2023/01/08 11:26:46;;;;;;;3.90;2.27;;;10.20;99.90;;;;;;6015525;23;20522;-77
2023/01/08 11:29:17;;;;;;;5.67;2.03;;;10.20;99.90;;;;;;6050766;23;20424;-77
2023/01/08 11:31:52;;;;;;;4.77;1.97;;;10.20;99.90;;;;;;6015254;23;20412;-77
2023/01/08 11:34:26;;;;;;;4.20;1.63;;;10.20;99.90;;;;;;6050219;23;20444;-77
2023/01/08 11:36:59;;;;;;;5.70;2.00;;;10.20;99.90;;;;;;6016105;23;20530;-77
2023/01/08 11:39:27;;;;;;;7.53;2.13;;;10.20;99.90;;;;;;6050273;23;20381;-77
2023/01/08 11:42:19;;;;;;;4.90;1.80;;;10.20;99.90;;;;;;6040887;23;20493;-76
2023/01/08 11:45:03;;;;;;;6.00;2.07;;;10.20;99.90;;;;;;6015228;23;20495;-77
2023/01/08 11:47:57;;;;;;;4.37;1.60;;;10.20;99.90;;;;;;6015459;23;20464;-77
2023/01/08 11:50:29;;;;;;;5.40;2.07;;;10.20;99.90;;;;;;6051141;23;20920;-76
2023/01/08 11:53:15;;;;;;;9.13;5.87;;;10.20;99.90;;;;;;6052976;23;20774;-77
2023/01/08 11:55:51;;;;;;;5.27;1.97;;;10.20;99.90;;;;;;6052575;23;20432;-76
2023/01/08 11:58:36;;;;;;;8.07;2.93;;;10.30;99.90;;;;;;6052141;23;20444;-77
2023/01/08 12:01:31;;;;;;;4.93;1.63;;;10.30;99.90;;;;;;6016585;23;20420;-77
2023/01/08 12:04:17;;;;;;;4.70;1.70;;;10.30;99.90;;;;;;6016253;23;20860;-77
2023/01/08 12:06:54;;;;;;;7.43;2.30;;;10.20;99.90;;;;;;6050617;23;20438;-77
2023/01/08 12:09:32;;;;;;;5.07;2.13;;;10.30;99.90;;;;;;6016932;23;20471;-77
2023/01/08 12:12:06;;;;;;;5.80;2.10;;;10.30;99.90;;;;;;6052291;23;20388;-76
2023/01/08 12:14:51;;;;;;;8.33;2.70;;;10.30;99.90;;;;;;6015850;23;20475;-77
2023/01/08 12:17:38;;;;;;;5.57;2.33;;;10.30;99.90;;;;;;6016770;23;20444;-76
2023/01/08 12:20:17;;;;;;;5.73;2.23;;;10.30;99.90;;;;;;6015309;23;20428;-77
2023/01/08 12:22:55;;;;;;;8.27;2.60;;;10.30;99.90;;;;;;6016421;23;20425;-75
2023/01/08 12:25:46;;;;;;;9.47;2.30;;;10.30;99.90;;;;;;6040855;23;21003;-76
2023/01/08 12:28:24;;;;;;;6.70;2.47;;;10.40;99.90;;;;;;6015504;23;20456;-76
2023/01/08 12:31:19;;;;;;;8.70;3.53;;;10.40;99.90;;;;;;6041523;23;20511;-76
2023/01/08 12:33:51;;;;;;;4.93;1.90;;;10.40;99.90;;;;;;6016767;23;20420;-76
2023/01/08 12:36:25;;;;;;;7.07;2.33;;;10.40;99.90;;;;;;6016149;23;20534;-77
2023/01/08 12:38:55;;;;;;;6.43;2.47;;;10.40;99.90;;;;;;6016702;23;20446;-76
2023/01/08 12:41:24;;;;;;;6.43;2.50;;;10.40;99.90;;;;;;6050336;23;20387;-77
2023/01/08 12:43:57;;;;;;;6.43;2.30;;;10.50;99.90;;;;;;6015485;23;20427;-77
2023/01/08 12:46:32;;;;;;;13.40;2.93;;;10.50;99.90;;;;;;6015350;23;20480;-77
2023/01/08 12:49:02;;;;;;;11.37;5.40;;;10.50;99.90;;;;;;6022173;23;20766;-77
2023/01/08 12:51:36;;;;;;;7.40;1.93;;;10.40;99.90;;;;;;6050484;23;20448;-76
2023/01/08 12:54:13;;;;;;;10.93;2.70;;;10.50;99.90;;;;;;6039981;23;20883;-76
2023/01/08 12:56:47;;;;;;;11.23;3.03;;;10.50;99.90;;;;;;6041123;23;20434;-75
2023/01/08 12:59:24;;;;;;;6.57;2.13;;;10.50;99.90;;;;;;6038398;23;20412;-76
2023/01/08 13:02:01;;;;;;;6.77;2.40;;;10.50;99.90;;;;;;6038408;23;20423;-76
2023/01/08 13:04:39;;;;;;;6.90;2.20;;;10.50;99.90;;;;;;6038385;23;20416;-76
2023/01/08 13:07:16;;;;;;;8.13;3.03;;;10.50;99.90;;;;;;6038828;23;20439;-76
2023/01/08 13:09:45;;;;;;;5.63;2.20;;;10.50;99.90;;;;;;6039117;23;20423;-77
2023/01/08 13:12:15;;;;;;;7.50;2.30;;;10.50;99.90;;;;;;6038893;23;20412;-76